sensor_id;sensor_type;location;lat;lon;timestamp;temperature;humidity
30304;DHT22;17112;48.636;10.152;2022-09-11T00:01:35;17.40;68.90
30304;DHT22;17112;48.636;10.152;2022-09-11T00:04:01;17.40;68.60
30304;DHT22;17112;48.636;10.152;2022-09-11T00:06:27;17.40;68.40
30304;DHT22;17112;48.636;10.152;2022-09-11T00:08:55;17.30;68.30
30304;DHT22;17112;48.636;10.152;2022-09-11T00:11:25;17.30;68.60
30304;DHT22;17112;48.636;10.152;2022-09-11T00:13:53;17.30;68.30
30304;DHT22;17112;48.636;10.152;2022-09-11T00:16:32;17.30;68.30
30304;DHT22;17112;48.636;10.152;2022-09-11T00:19:01;17.30;68.80
30304;DHT22;17112;48.636;10.152;2022-09-11T00:21:27;17.20;68.80
30304;DHT22;17112;48.636;10.152;2022-09-11T00:23:54;17.20;68.90
30304;DHT22;17112;48.636;10.152;2022-09-11T00:26:20;17.20;68.80
30304;DHT22;17112;48.636;10.152;2022-09-11T00:28:47;17.20;68.80
30304;DHT22;17112;48.636;10.152;2022-09-11T00:31:17;17.20;68.90
30304;DHT22;17112;48.636;10.152;2022-09-11T00:33:43;17.20;69.10
30304;DHT22;17112;48.636;10.152;2022-09-11T00:36:14;17.20;69.10
30304;DHT22;17112;48.636;10.152;2022-09-11T00:38:41;17.20;69.60
30304;DHT22;17112;48.636;10.152;2022-09-11T00:41:12;17.20;69.40
30304;DHT22;17112;48.636;10.152;2022-09-11T00:46:48;17.20;70.50
30304;DHT22;17112;48.636;10.152;2022-09-11T00:49:45;17.20;69.80
30304;DHT22;17112;48.636;10.152;2022-09-11T00:52:22;17.20;69.90
30304;DHT22;17112;48.636;10.152;2022-09-11T00:55:06;17.20;69.80
30304;DHT22;17112;48.636;10.152;2022-09-11T00:57:39;17.20;70.00
30304;DHT22;17112;48.636;10.152;2022-09-11T01:00:07;17.20;69.90
30304;DHT22;17112;48.636;10.152;2022-09-11T01:02:34;17.20;69.60
30304;DHT22;17112;48.636;10.152;2022-09-11T01:05:01;17.20;69.90
30304;DHT22;17112;48.636;10.152;2022-09-11T01:07:28;17.20;70.00
30304;DHT22;17112;48.636;10.152;2022-09-11T01:09:55;17.20;69.90
30304;DHT22;17112;48.636;10.152;2022-09-11T01:15:03;17.20;70.50
30304;DHT22;17112;48.636;10.152;2022-09-11T01:32:23;17.30;70.50
30304;DHT22;17112;48.636;10.152;2022-09-11T01:40:25;17.20;70.20
30304;DHT22;17112;48.636;10.152;2022-09-11T01:42:55;17.20;70.00
30304;DHT22;17112;48.636;10.152;2022-09-11T01:45:22;17.20;70.50
30304;DHT22;17112;48.636;10.152;2022-09-11T01:47:50;17.20;69.90
30304;DHT22;17112;48.636;10.152;2022-09-11T01:50:18;17.20;70.10
30304;DHT22;17112;48.636;10.152;2022-09-11T01:52:54;17.20;70.20
30304;DHT22;17112;48.636;10.152;2022-09-11T01:55:40;17.20;70.20
30304;DHT22;17112;48.636;10.152;2022-09-11T01:58:19;17.20;70.40
30304;DHT22;17112;48.636;10.152;2022-09-11T02:00:48;17.10;69.80
30304;DHT22;17112;48.636;10.152;2022-09-11T02:03:25;17.10;69.80
30304;DHT22;17112;48.636;10.152;2022-09-11T02:05:59;17.10;70.20
30304;DHT22;17112;48.636;10.152;2022-09-11T02:08:37;17.10;70.40
30304;DHT22;17112;48.636;10.152;2022-09-11T02:11:09;17.10;70.60
30304;DHT22;17112;48.636;10.152;2022-09-11T02:19:02;17.10;70.60
30304;DHT22;17112;48.636;10.152;2022-09-11T02:21:28;17.10;71.70
30304;DHT22;17112;48.636;10.152;2022-09-11T02:23:56;17.10;70.60
30304;DHT22;17112;48.636;10.152;2022-09-11T02:26:26;17.10;70.90
30304;DHT22;17112;48.636;10.152;2022-09-11T02:28:53;17.10;70.80
30304;DHT22;17112;48.636;10.152;2022-09-11T02:31:20;17.20;70.70
30304;DHT22;17112;48.636;10.152;2022-09-11T02:33:47;17.10;70.50
30304;DHT22;17112;48.636;10.152;2022-09-11T02:45:08;17.20;71.00
30304;DHT22;17112;48.636;10.152;2022-09-11T02:48:01;17.20;71.20
30304;DHT22;17112;48.636;10.152;2022-09-11T02:53:09;17.20;70.50
30304;DHT22;17112;48.636;10.152;2022-09-11T02:56:06;17.20;70.60
30304;DHT22;17112;48.636;10.152;2022-09-11T03:01:03;17.20;70.50
30304;DHT22;17112;48.636;10.152;2022-09-11T03:03:40;17.20;70.60
30304;DHT22;17112;48.636;10.152;2022-09-11T03:06:14;17.20;70.90
30304;DHT22;17112;48.636;10.152;2022-09-11T03:08:40;17.30;70.90
30304;DHT22;17112;48.636;10.152;2022-09-11T03:11:06;17.20;70.70
30304;DHT22;17112;48.636;10.152;2022-09-11T03:13:33;17.30;70.80
30304;DHT22;17112;48.636;10.152;2022-09-11T03:16:00;17.20;70.70
30304;DHT22;17112;48.636;10.152;2022-09-11T03:18:26;17.30;70.90
30304;DHT22;17112;48.636;10.152;2022-09-11T03:20:51;17.30;70.90
30304;DHT22;17112;48.636;10.152;2022-09-11T03:23:17;17.30;70.80
30304;DHT22;17112;48.636;10.152;2022-09-11T03:25:43;17.30;70.60
30304;DHT22;17112;48.636;10.152;2022-09-11T03:28:09;17.30;70.60
30304;DHT22;17112;48.636;10.152;2022-09-11T03:30:35;17.30;70.60
30304;DHT22;17112;48.636;10.152;2022-09-11T03:33:00;17.40;70.60
30304;DHT22;17112;48.636;10.152;2022-09-11T03:35:27;17.30;70.30
30304;DHT22;17112;48.636;10.152;2022-09-11T03:37:53;17.30;70.40
30304;DHT22;17112;48.636;10.152;2022-09-11T03:40:22;17.30;70.60
30304;DHT22;17112;48.636;10.152;2022-09-11T03:42:47;17.30;70.60
30304;DHT22;17112;48.636;10.152;2022-09-11T03:45:13;17.40;70.60
30304;DHT22;17112;48.636;10.152;2022-09-11T03:47:40;17.40;70.50
30304;DHT22;17112;48.636;10.152;2022-09-11T03:50:07;17.30;70.30
30304;DHT22;17112;48.636;10.152;2022-09-11T03:52:33;17.40;70.50
30304;DHT22;17112;48.636;10.152;2022-09-11T03:55:00;17.30;70.60
30304;DHT22;17112;48.636;10.152;2022-09-11T03:57:26;17.30;70.40
30304;DHT22;17112;48.636;10.152;2022-09-11T03:59:52;17.40;70.50
30304;DHT22;17112;48.636;10.152;2022-09-11T04:02:20;17.30;70.40
30304;DHT22;17112;48.636;10.152;2022-09-11T04:04:47;17.30;70.30
30304;DHT22;17112;48.636;10.152;2022-09-11T04:07:13;17.30;70.40
30304;DHT22;17112;48.636;10.152;2022-09-11T04:09:38;17.30;70.40
30304;DHT22;17112;48.636;10.152;2022-09-11T04:12:04;17.30;70.60
30304;DHT22;17112;48.636;10.152;2022-09-11T04:14:30;17.30;70.80
30304;DHT22;17112;48.636;10.152;2022-09-11T04:16:56;17.30;70.80
30304;DHT22;17112;48.636;10.152;2022-09-11T04:19:22;17.30;70.70
30304;DHT22;17112;48.636;10.152;2022-09-11T04:21:48;17.30;70.90
30304;DHT22;17112;48.636;10.152;2022-09-11T04:24:13;17.30;70.80
30304;DHT22;17112;48.636;10.152;2022-09-11T04:26:40;17.30;70.80
30304;DHT22;17112;48.636;10.152;2022-09-11T04:29:05;17.30;70.90
30304;DHT22;17112;48.636;10.152;2022-09-11T04:31:34;17.30;70.70
30304;DHT22;17112;48.636;10.152;2022-09-11T04:34:00;17.30;70.80
30304;DHT22;17112;48.636;10.152;2022-09-11T04:36:25;17.30;70.90
30304;DHT22;17112;48.636;10.152;2022-09-11T04:38:56;17.20;70.80
30304;DHT22;17112;48.636;10.152;2022-09-11T04:41:22;17.30;71.10
30304;DHT22;17112;48.636;10.152;2022-09-11T04:43:52;17.30;70.80
30304;DHT22;17112;48.636;10.152;2022-09-11T04:46:18;17.20;70.70
30304;DHT22;17112;48.636;10.152;2022-09-11T04:48:55;17.20;70.80
30304;DHT22;17112;48.636;10.152;2022-09-11T04:53:53;17.20;70.90
30304;DHT22;17112;48.636;10.152;2022-09-11T04:56:24;17.20;71.30
30304;DHT22;17112;48.636;10.152;2022-09-11T04:58:54;17.20;70.90
30304;DHT22;17112;48.636;10.152;2022-09-11T05:01:20;17.20;71.30
30304;DHT22;17112;48.636;10.152;2022-09-11T05:03:46;17.20;71.10
30304;DHT22;17112;48.636;10.152;2022-09-11T05:06:12;17.20;71.00
30304;DHT22;17112;48.636;10.152;2022-09-11T05:08:45;17.20;71.00
30304;DHT22;17112;48.636;10.152;2022-09-11T05:11:13;17.10;71.30
30304;DHT22;17112;48.636;10.152;2022-09-11T05:13:39;17.20;71.40
30304;DHT22;17112;48.636;10.152;2022-09-11T05:16:10;17.10;71.40
30304;DHT22;17112;48.636;10.152;2022-09-11T05:18:37;17.10;71.30
30304;DHT22;17112;48.636;10.152;2022-09-11T05:21:11;17.10;71.70
30304;DHT22;17112;48.636;10.152;2022-09-11T05:23:40;17.10;71.80
30304;DHT22;17112;48.636;10.152;2022-09-11T05:26:17;17.10;71.50
30304;DHT22;17112;48.636;10.152;2022-09-11T05:28:43;17.10;72.10
30304;DHT22;17112;48.636;10.152;2022-09-11T05:31:16;17.00;71.70
30304;DHT22;17112;48.636;10.152;2022-09-11T05:33:45;17.10;71.90
30304;DHT22;17112;48.636;10.152;2022-09-11T05:36:13;17.00;72.10
30304;DHT22;17112;48.636;10.152;2022-09-11T05:38:39;17.10;72.20
30304;DHT22;17112;48.636;10.152;2022-09-11T05:41:07;17.00;72.00
30304;DHT22;17112;48.636;10.152;2022-09-11T05:43:34;17.10;72.20
30304;DHT22;17112;48.636;10.152;2022-09-11T05:46:00;17.10;72.30
30304;DHT22;17112;48.636;10.152;2022-09-11T05:48:30;17.10;72.20
30304;DHT22;17112;48.636;10.152;2022-09-11T05:51:01;17.10;72.30
30304;DHT22;17112;48.636;10.152;2022-09-11T05:53:28;17.10;72.30
30304;DHT22;17112;48.636;10.152;2022-09-11T05:56:04;17.10;72.00
30304;DHT22;17112;48.636;10.152;2022-09-11T05:58:30;17.10;72.20
30304;DHT22;17112;48.636;10.152;2022-09-11T06:01:09;17.10;72.20
30304;DHT22;17112;48.636;10.152;2022-09-11T06:03:36;17.10;72.80
30304;DHT22;17112;48.636;10.152;2022-09-11T06:06:05;17.10;72.40
30304;DHT22;17112;48.636;10.152;2022-09-11T06:08:31;17.10;72.70
30304;DHT22;17112;48.636;10.152;2022-09-11T06:11:00;17.20;72.90
30304;DHT22;17112;48.636;10.152;2022-09-11T06:13:31;17.20;72.90
30304;DHT22;17112;48.636;10.152;2022-09-11T06:15:59;17.20;73.10
30304;DHT22;17112;48.636;10.152;2022-09-11T06:18:25;17.20;72.90
30304;DHT22;17112;48.636;10.152;2022-09-11T06:20:59;17.30;72.80
30304;DHT22;17112;48.636;10.152;2022-09-11T06:23:25;17.30;73.10
30304;DHT22;17112;48.636;10.152;2022-09-11T06:25:52;17.30;72.50
30304;DHT22;17112;48.636;10.152;2022-09-11T06:28:22;17.30;72.60
30304;DHT22;17112;48.636;10.152;2022-09-11T06:30:50;17.40;72.60
30304;DHT22;17112;48.636;10.152;2022-09-11T06:33:17;17.30;72.70
30304;DHT22;17112;48.636;10.152;2022-09-11T06:35:59;17.40;72.50
30304;DHT22;17112;48.636;10.152;2022-09-11T06:38:26;17.40;73.30
30304;DHT22;17112;48.636;10.152;2022-09-11T06:40:53;17.40;72.80
30304;DHT22;17112;48.636;10.152;2022-09-11T06:43:19;17.70;72.80
30304;DHT22;17112;48.636;10.152;2022-09-11T06:45:46;17.40;72.50
30304;DHT22;17112;48.636;10.152;2022-09-11T06:48:15;17.50;72.70
30304;DHT22;17112;48.636;10.152;2022-09-11T06:50:42;17.50;73.00
30304;DHT22;17112;48.636;10.152;2022-09-11T06:53:08;17.50;73.00
30304;DHT22;17112;48.636;10.152;2022-09-11T06:55:34;17.60;73.20
30304;DHT22;17112;48.636;10.152;2022-09-11T06:58:00;17.60;73.00
30304;DHT22;17112;48.636;10.152;2022-09-11T07:00:27;17.70;72.70
30304;DHT22;17112;48.636;10.152;2022-09-11T07:02:52;17.70;72.50
30304;DHT22;17112;48.636;10.152;2022-09-11T07:05:19;17.70;72.20
30304;DHT22;17112;48.636;10.152;2022-09-11T07:07:56;17.70;72.20
30304;DHT22;17112;48.636;10.152;2022-09-11T07:10:22;17.80;72.20
30304;DHT22;17112;48.636;10.152;2022-09-11T07:12:48;17.80;71.90
30304;DHT22;17112;48.636;10.152;2022-09-11T07:15:16;17.70;71.70
30304;DHT22;17112;48.636;10.152;2022-09-11T07:17:42;17.70;71.60
30304;DHT22;17112;48.636;10.152;2022-09-11T07:20:08;17.70;71.80
30304;DHT22;17112;48.636;10.152;2022-09-11T07:22:34;17.70;72.20
30304;DHT22;17112;48.636;10.152;2022-09-11T07:25:00;17.70;72.10
30304;DHT22;17112;48.636;10.152;2022-09-11T07:27:27;17.70;72.10
30304;DHT22;17112;48.636;10.152;2022-09-11T07:29:53;17.70;72.30
30304;DHT22;17112;48.636;10.152;2022-09-11T07:32:19;17.70;72.20
30304;DHT22;17112;48.636;10.152;2022-09-11T07:34:45;17.80;72.90
30304;DHT22;17112;48.636;10.152;2022-09-11T07:37:14;17.80;73.00
30304;DHT22;17112;48.636;10.152;2022-09-11T07:39:39;17.90;72.90
30304;DHT22;17112;48.636;10.152;2022-09-11T07:42:07;17.90;72.90
30304;DHT22;17112;48.636;10.152;2022-09-11T07:44:35;18.00;72.70
30304;DHT22;17112;48.636;10.152;2022-09-11T07:47:02;18.10;72.60
30304;DHT22;17112;48.636;10.152;2022-09-11T07:49:35;18.10;72.60
30304;DHT22;17112;48.636;10.152;2022-09-11T07:52:02;18.20;72.70
30304;DHT22;17112;48.636;10.152;2022-09-11T07:54:29;18.30;72.80
30304;DHT22;17112;48.636;10.152;2022-09-11T07:56:55;18.30;72.60
30304;DHT22;17112;48.636;10.152;2022-09-11T07:59:23;18.40;72.50
30304;DHT22;17112;48.636;10.152;2022-09-11T08:01:49;18.50;72.40
30304;DHT22;17112;48.636;10.152;2022-09-11T08:04:15;18.60;72.50
30304;DHT22;17112;48.636;10.152;2022-09-11T08:06:43;18.60;72.20
30304;DHT22;17112;48.636;10.152;2022-09-11T08:09:12;18.70;72.20
30304;DHT22;17112;48.636;10.152;2022-09-11T08:11:45;18.80;72.30
30304;DHT22;17112;48.636;10.152;2022-09-11T08:14:15;18.90;71.50
30304;DHT22;17112;48.636;10.152;2022-09-11T08:16:42;19.00;70.90
30304;DHT22;17112;48.636;10.152;2022-09-11T08:19:15;19.10;70.40
30304;DHT22;17112;48.636;10.152;2022-09-11T08:21:41;19.00;70.30
30304;DHT22;17112;48.636;10.152;2022-09-11T08:24:10;19.10;70.40
30304;DHT22;17112;48.636;10.152;2022-09-11T08:26:36;19.10;69.90
30304;DHT22;17112;48.636;10.152;2022-09-11T08:29:03;19.20;69.80
30304;DHT22;17112;48.636;10.152;2022-09-11T08:31:30;19.20;69.90
30304;DHT22;17112;48.636;10.152;2022-09-11T08:33:58;19.40;69.80
30304;DHT22;17112;48.636;10.152;2022-09-11T08:36:24;19.40;69.70
30304;DHT22;17112;48.636;10.152;2022-09-11T08:38:50;19.50;69.70
30304;DHT22;17112;48.636;10.152;2022-09-11T08:46:44;19.80;68.70
30304;DHT22;17112;48.636;10.152;2022-09-11T08:49:18;19.80;68.40
30304;DHT22;17112;48.636;10.152;2022-09-11T08:51:47;19.90;68.20
30304;DHT22;17112;48.636;10.152;2022-09-11T08:54:30;20.00;67.90
30304;DHT22;17112;48.636;10.152;2022-09-11T08:57:06;20.00;67.70
30304;DHT22;17112;48.636;10.152;2022-09-11T08:59:48;20.00;67.00
30304;DHT22;17112;48.636;10.152;2022-09-11T09:02:48;20.10;66.60
30304;DHT22;17112;48.636;10.152;2022-09-11T09:05:40;20.10;66.30
30304;DHT22;17112;48.636;10.152;2022-09-11T09:10:55;20.10;66.50
30304;DHT22;17112;48.636;10.152;2022-09-11T09:18:39;20.10;66.10
30304;DHT22;17112;48.636;10.152;2022-09-11T09:21:22;20.10;66.10
30304;DHT22;17112;48.636;10.152;2022-09-11T09:23:58;20.20;66.00
30304;DHT22;17112;48.636;10.152;2022-09-11T09:26:36;20.20;65.80
30304;DHT22;17112;48.636;10.152;2022-09-11T09:29:08;20.20;65.50
30304;DHT22;17112;48.636;10.152;2022-09-11T09:31:34;20.20;65.70
30304;DHT22;17112;48.636;10.152;2022-09-11T09:34:13;20.30;65.90
30304;DHT22;17112;48.636;10.152;2022-09-11T09:37:03;20.40;66.70
30304;DHT22;17112;48.636;10.152;2022-09-11T09:39:30;20.40;66.20
30304;DHT22;17112;48.636;10.152;2022-09-11T09:42:18;20.50;65.50
30304;DHT22;17112;48.636;10.152;2022-09-11T09:47:46;20.70;63.60
30304;DHT22;17112;48.636;10.152;2022-09-11T09:50:23;20.80;64.30
30304;DHT22;17112;48.636;10.152;2022-09-11T09:52:50;20.80;63.70
30304;DHT22;17112;48.636;10.152;2022-09-11T09:55:20;20.90;64.10
30304;DHT22;17112;48.636;10.152;2022-09-11T09:57:46;20.90;63.40
30304;DHT22;17112;48.636;10.152;2022-09-11T10:00:17;20.90;63.00
30304;DHT22;17112;48.636;10.152;2022-09-11T10:02:48;20.90;63.20
30304;DHT22;17112;48.636;10.152;2022-09-11T10:05:27;21.00;62.40
30304;DHT22;17112;48.636;10.152;2022-09-11T10:08:02;21.10;63.00
30304;DHT22;17112;48.636;10.152;2022-09-11T10:10:33;21.20;62.40
30304;DHT22;17112;48.636;10.152;2022-09-11T10:15:39;21.20;61.00
30304;DHT22;17112;48.636;10.152;2022-09-11T10:18:39;21.20;62.00
30304;DHT22;17112;48.636;10.152;2022-09-11T10:23:51;21.30;61.80
30304;DHT22;17112;48.636;10.152;2022-09-11T10:29:05;21.30;59.00
30304;DHT22;17112;48.636;10.152;2022-09-11T10:31:33;21.30;59.60
30304;DHT22;17112;48.636;10.152;2022-09-11T10:34:00;21.30;60.10
30304;DHT22;17112;48.636;10.152;2022-09-11T10:36:28;21.20;60.30
30304;DHT22;17112;48.636;10.152;2022-09-11T10:38:56;21.30;60.10
30304;DHT22;17112;48.636;10.152;2022-09-11T10:41:24;21.30;59.40
30304;DHT22;17112;48.636;10.152;2022-09-11T10:44:10;21.40;59.60
30304;DHT22;17112;48.636;10.152;2022-09-11T10:46:39;21.60;58.60
30304;DHT22;17112;48.636;10.152;2022-09-11T10:49:20;21.70;59.10
30304;DHT22;17112;48.636;10.152;2022-09-11T10:54:48;22.10;58.40
30304;DHT22;17112;48.636;10.152;2022-09-11T10:57:52;22.20;57.90
30304;DHT22;17112;48.636;10.152;2022-09-11T11:00:28;22.30;57.90
30304;DHT22;17112;48.636;10.152;2022-09-11T11:11:00;23.10;57.90
30304;DHT22;17112;48.636;10.152;2022-09-11T11:13:41;23.20;54.60
30304;DHT22;17112;48.636;10.152;2022-09-11T11:19:41;23.30;53.50
30304;DHT22;17112;48.636;10.152;2022-09-11T11:25:27;23.20;54.40
30304;DHT22;17112;48.636;10.152;2022-09-11T11:28:11;23.10;54.50
30304;DHT22;17112;48.636;10.152;2022-09-11T11:30:53;23.20;54.50
30304;DHT22;17112;48.636;10.152;2022-09-11T11:39:01;23.10;53.80
30304;DHT22;17112;48.636;10.152;2022-09-11T11:41:34;23.00;54.80
30304;DHT22;17112;48.636;10.152;2022-09-11T11:44:04;22.90;54.50
30304;DHT22;17112;48.636;10.152;2022-09-11T11:46:37;22.90;54.60
30304;DHT22;17112;48.636;10.152;2022-09-11T11:49:09;22.80;54.20
30304;DHT22;17112;48.636;10.152;2022-09-11T11:51:48;22.80;54.80
30304;DHT22;17112;48.636;10.152;2022-09-11T11:54:18;22.90;54.70
30304;DHT22;17112;48.636;10.152;2022-09-11T11:56:49;23.00;55.40
30304;DHT22;17112;48.636;10.152;2022-09-11T12:04:48;23.20;54.90
30304;DHT22;17112;48.636;10.152;2022-09-11T12:07:25;23.30;55.10
30304;DHT22;17112;48.636;10.152;2022-09-11T12:09:54;23.30;54.20
30304;DHT22;17112;48.636;10.152;2022-09-11T12:12:25;23.30;54.00
30304;DHT22;17112;48.636;10.152;2022-09-11T12:15:06;23.20;54.00
30304;DHT22;17112;48.636;10.152;2022-09-11T12:17:34;23.20;54.00
30304;DHT22;17112;48.636;10.152;2022-09-11T12:23:00;23.00;53.20
30304;DHT22;17112;48.636;10.152;2022-09-11T12:30:59;23.00;52.60
30304;DHT22;17112;48.636;10.152;2022-09-11T12:39:03;23.40;53.00
30304;DHT22;17112;48.636;10.152;2022-09-11T12:41:33;23.50;52.40
30304;DHT22;17112;48.636;10.152;2022-09-11T12:44:00;23.60;52.90
30304;DHT22;17112;48.636;10.152;2022-09-11T12:51:36;23.60;52.60
30304;DHT22;17112;48.636;10.152;2022-09-11T12:54:15;23.60;52.80
30304;DHT22;17112;48.636;10.152;2022-09-11T12:56:51;23.60;52.70
30304;DHT22;17112;48.636;10.152;2022-09-11T12:59:33;23.60;52.60
30304;DHT22;17112;48.636;10.152;2022-09-11T13:02:01;23.60;51.60
30304;DHT22;17112;48.636;10.152;2022-09-11T13:04:28;23.50;51.90
30304;DHT22;17112;48.636;10.152;2022-09-11T13:07:00;23.40;52.20
30304;DHT22;17112;48.636;10.152;2022-09-11T13:09:40;23.20;52.10
30304;DHT22;17112;48.636;10.152;2022-09-11T13:14:50;23.00;51.80
30304;DHT22;17112;48.636;10.152;2022-09-11T13:17:30;22.90;52.60
30304;DHT22;17112;48.636;10.152;2022-09-11T13:22:34;22.80;52.00
30304;DHT22;17112;48.636;10.152;2022-09-11T13:25:20;22.80;52.50
30304;DHT22;17112;48.636;10.152;2022-09-11T13:27:52;22.70;52.80
30304;DHT22;17112;48.636;10.152;2022-09-11T13:30:21;22.70;52.50
30304;DHT22;17112;48.636;10.152;2022-09-11T13:32:50;22.80;53.00
30304;DHT22;17112;48.636;10.152;2022-09-11T13:35:26;22.80;53.30
30304;DHT22;17112;48.636;10.152;2022-09-11T13:38:07;22.90;53.40
30304;DHT22;17112;48.636;10.152;2022-09-11T13:40:47;23.00;52.90
30304;DHT22;17112;48.636;10.152;2022-09-11T13:43:17;23.10;53.40
30304;DHT22;17112;48.636;10.152;2022-09-11T13:45:45;23.30;53.70
30304;DHT22;17112;48.636;10.152;2022-09-11T13:48:21;23.40;53.30
30304;DHT22;17112;48.636;10.152;2022-09-11T13:50:49;23.60;52.60
30304;DHT22;17112;48.636;10.152;2022-09-11T13:53:19;23.60;53.40
30304;DHT22;17112;48.636;10.152;2022-09-11T13:55:48;23.80;53.20
30304;DHT22;17112;48.636;10.152;2022-09-11T13:58:27;23.80;53.10
30304;DHT22;17112;48.636;10.152;2022-09-11T14:01:17;23.90;51.60
30304;DHT22;17112;48.636;10.152;2022-09-11T14:03:45;23.90;52.70
30304;DHT22;17112;48.636;10.152;2022-09-11T14:06:17;23.90;52.50
30304;DHT22;17112;48.636;10.152;2022-09-11T14:08:51;23.90;52.40
30304;DHT22;17112;48.636;10.152;2022-09-11T14:11:26;23.90;52.30
30304;DHT22;17112;48.636;10.152;2022-09-11T14:16:36;24.00;52.00
30304;DHT22;17112;48.636;10.152;2022-09-11T14:19:07;24.00;52.10
30304;DHT22;17112;48.636;10.152;2022-09-11T14:21:37;24.10;51.40
30304;DHT22;17112;48.636;10.152;2022-09-11T14:24:22;24.10;50.40
30304;DHT22;17112;48.636;10.152;2022-09-11T14:26:49;24.10;50.60
30304;DHT22;17112;48.636;10.152;2022-09-11T14:29:26;24.20;50.80
30304;DHT22;17112;48.636;10.152;2022-09-11T14:34:48;24.40;50.00
30304;DHT22;17112;48.636;10.152;2022-09-11T14:37:15;24.50;49.80
30304;DHT22;17112;48.636;10.152;2022-09-11T14:39:48;24.50;49.70
30304;DHT22;17112;48.636;10.152;2022-09-11T14:42:19;24.50;49.90
30304;DHT22;17112;48.636;10.152;2022-09-11T14:44:46;24.60;49.90
30304;DHT22;17112;48.636;10.152;2022-09-11T14:47:17;24.70;49.70
30304;DHT22;17112;48.636;10.152;2022-09-11T14:49:44;24.80;49.80
30304;DHT22;17112;48.636;10.152;2022-09-11T14:52:23;25.00;49.90
30304;DHT22;17112;48.636;10.152;2022-09-11T14:54:50;25.20;48.70
30304;DHT22;17112;48.636;10.152;2022-09-11T14:57:18;25.20;48.10
30304;DHT22;17112;48.636;10.152;2022-09-11T14:59:44;25.20;48.00
30304;DHT22;17112;48.636;10.152;2022-09-11T15:02:25;25.20;47.80
30304;DHT22;17112;48.636;10.152;2022-09-11T15:04:52;25.00;47.40
30304;DHT22;17112;48.636;10.152;2022-09-11T15:07:18;24.90;47.60
30304;DHT22;17112;48.636;10.152;2022-09-11T15:09:45;24.70;47.80
30304;DHT22;17112;48.636;10.152;2022-09-11T15:12:12;24.50;48.20
30304;DHT22;17112;48.636;10.152;2022-09-11T15:14:38;24.40;48.50
30304;DHT22;17112;48.636;10.152;2022-09-11T15:17:06;24.30;49.10
30304;DHT22;17112;48.636;10.152;2022-09-11T15:19:32;24.20;49.10
30304;DHT22;17112;48.636;10.152;2022-09-11T15:22:00;24.10;49.20
30304;DHT22;17112;48.636;10.152;2022-09-11T15:24:27;24.00;49.40
30304;DHT22;17112;48.636;10.152;2022-09-11T15:26:53;23.90;49.50
30304;DHT22;17112;48.636;10.152;2022-09-11T15:29:23;23.80;49.80
30304;DHT22;17112;48.636;10.152;2022-09-11T15:31:52;23.70;49.90
30304;DHT22;17112;48.636;10.152;2022-09-11T15:34:19;23.60;50.30
30304;DHT22;17112;48.636;10.152;2022-09-11T15:36:46;23.60;50.40
30304;DHT22;17112;48.636;10.152;2022-09-11T15:39:17;23.50;50.60
30304;DHT22;17112;48.636;10.152;2022-09-11T15:41:44;23.50;50.50
30304;DHT22;17112;48.636;10.152;2022-09-11T15:44:16;23.50;50.60
30304;DHT22;17112;48.636;10.152;2022-09-11T15:46:44;23.40;50.70
30304;DHT22;17112;48.636;10.152;2022-09-11T15:49:10;23.40;50.80
30304;DHT22;17112;48.636;10.152;2022-09-11T15:51:36;23.40;50.90
30304;DHT22;17112;48.636;10.152;2022-09-11T15:54:03;23.40;51.10
30304;DHT22;17112;48.636;10.152;2022-09-11T15:56:29;23.40;51.20
30304;DHT22;17112;48.636;10.152;2022-09-11T15:58:57;23.30;50.90
30304;DHT22;17112;48.636;10.152;2022-09-11T16:01:26;23.30;50.90
30304;DHT22;17112;48.636;10.152;2022-09-11T16:03:58;23.30;50.70
30304;DHT22;17112;48.636;10.152;2022-09-11T16:06:25;23.20;50.70
30304;DHT22;17112;48.636;10.152;2022-09-11T16:08:55;23.10;50.80
30304;DHT22;17112;48.636;10.152;2022-09-11T16:11:20;23.10;50.90
30304;DHT22;17112;48.636;10.152;2022-09-11T16:13:49;23.00;51.20
30304;DHT22;17112;48.636;10.152;2022-09-11T16:16:15;22.90;51.20
30304;DHT22;17112;48.636;10.152;2022-09-11T16:18:40;22.80;51.60
30304;DHT22;17112;48.636;10.152;2022-09-11T16:21:10;22.80;51.80
30304;DHT22;17112;48.636;10.152;2022-09-11T16:23:36;22.70;51.90
30304;DHT22;17112;48.636;10.152;2022-09-11T16:26:08;22.70;52.20
30304;DHT22;17112;48.636;10.152;2022-09-11T16:28:37;22.60;52.20
30304;DHT22;17112;48.636;10.152;2022-09-11T16:31:03;22.60;52.30
30304;DHT22;17112;48.636;10.152;2022-09-11T16:33:31;22.50;52.70
30304;DHT22;17112;48.636;10.152;2022-09-11T16:38:22;22.30;53.50
30304;DHT22;17112;48.636;10.152;2022-09-11T16:40:48;22.20;53.70
30304;DHT22;17112;48.636;10.152;2022-09-11T16:43:14;22.10;54.20
30304;DHT22;17112;48.636;10.152;2022-09-11T16:45:49;22.00;54.20
30304;DHT22;17112;48.636;10.152;2022-09-11T16:48:14;21.90;54.70
30304;DHT22;17112;48.636;10.152;2022-09-11T16:50:41;21.80;54.80
30304;DHT22;17112;48.636;10.152;2022-09-11T16:53:07;21.70;55.10
30304;DHT22;17112;48.636;10.152;2022-09-11T16:55:37;21.50;55.50
30304;DHT22;17112;48.636;10.152;2022-09-11T16:58:03;21.40;55.90
30304;DHT22;17112;48.636;10.152;2022-09-11T17:00:29;21.20;55.90
30304;DHT22;17112;48.636;10.152;2022-09-11T17:02:56;21.20;56.30
30304;DHT22;17112;48.636;10.152;2022-09-11T17:05:23;21.10;56.80
30304;DHT22;17112;48.636;10.152;2022-09-11T17:07:49;20.90;57.00
30304;DHT22;17112;48.636;10.152;2022-09-11T17:10:15;20.90;57.30
30304;DHT22;17112;48.636;10.152;2022-09-11T17:12:40;20.80;57.50
30304;DHT22;17112;48.636;10.152;2022-09-11T17:15:06;20.70;57.60
30304;DHT22;17112;48.636;10.152;2022-09-11T17:17:34;20.60;57.80
30304;DHT22;17112;48.636;10.152;2022-09-11T17:19:59;20.50;58.20
30304;DHT22;17112;48.636;10.152;2022-09-11T17:22:25;20.50;58.30
30304;DHT22;17112;48.636;10.152;2022-09-11T17:24:51;20.40;58.40
30304;DHT22;17112;48.636;10.152;2022-09-11T17:27:18;20.30;58.50
30304;DHT22;17112;48.636;10.152;2022-09-11T17:29:43;20.20;58.40
30304;DHT22;17112;48.636;10.152;2022-09-11T17:32:09;20.10;58.60
30304;DHT22;17112;48.636;10.152;2022-09-11T17:34:35;20.10;58.90
30304;DHT22;17112;48.636;10.152;2022-09-11T17:37:01;20.00;59.00
30304;DHT22;17112;48.636;10.152;2022-09-11T17:39:27;19.90;59.10
30304;DHT22;17112;48.636;10.152;2022-09-11T17:41:52;19.90;59.30
30304;DHT22;17112;48.636;10.152;2022-09-11T17:44:18;19.80;59.40
30304;DHT22;17112;48.636;10.152;2022-09-11T17:46:44;19.70;59.50